ASA1332 KSEA-KDEN
Flight info
| Callsign | ASA1332 |
|---|---|
| Flight time | N/A |
| Altitude | 39000 |
| Route | SUMMA2 SUMMA J54 BKE PIH MJANE FLATI4 |
| Aircraft | B38M/M-SDE1FGHILORVWXY/HB1 |
Departure
| Time | 2026-05-06 22:12 |
|---|---|
| Airport | Seattle–Tacoma International Airport (KSEA) |
Arrival
| Time | N/A |
|---|---|
| Airport | Denver International Airport (KDEN) |
| Time | Latitude | Longitude | Altitude | Speed | Heading |
|---|---|---|---|---|---|
| 2026-05-06 21:54 | 47.44163 | -122.30450 | 386 ft | 0 kts | 91° |
| 2026-05-06 22:04 | 47.44164 | -122.30454 | 386 ft | 3 kts | 128° |
| 2026-05-06 22:04 | 47.44149 | -122.30448 | 386 ft | 3 kts | 174° |
| 2026-05-06 22:04 | 47.44146 | -122.30499 | 387 ft | 0 kts | 191° |
| 2026-05-06 22:05 | 47.44152 | -122.30549 | 386 ft | 0 kts | 3° |
| 2026-05-06 22:07 | 47.44233 | -122.30545 | 386 ft | 14 kts | 0° |
| 2026-05-06 22:08 | 47.44335 | -122.30566 | 386 ft | 14 kts | 321° |
| 2026-05-06 22:08 | 47.44407 | -122.30633 | 386 ft | 12 kts | 355° |
| 2026-05-06 22:08 | 47.44500 | -122.30633 | 386 ft | 15 kts | 0° |
| 2026-05-06 22:08 | 47.44614 | -122.30631 | 386 ft | 19 kts | 0° |
| 2026-05-06 22:09 | 47.44779 | -122.30630 | 386 ft | 29 kts | 0° |
| 2026-05-06 22:09 | 47.45005 | -122.30629 | 386 ft | 28 kts | 360° |
| 2026-05-06 22:09 | 47.45214 | -122.30631 | 386 ft | 31 kts | 359° |
| 2026-05-06 22:09 | 47.45438 | -122.30625 | 386 ft | 33 kts | 1° |
| 2026-05-06 22:10 | 47.45668 | -122.30622 | 386 ft | 34 kts | 0° |
| 2026-05-06 22:10 | 47.45911 | -122.30622 | 386 ft | 36 kts | 360° |
| 2026-05-06 22:10 | 47.46153 | -122.30621 | 386 ft | 20 kts | 0° |
| 2026-05-06 22:10 | 47.46277 | -122.30668 | 386 ft | 18 kts | 298° |
| 2026-05-06 22:11 | 47.46239 | -122.30781 | 386 ft | 12 kts | 185° |
| 2026-05-06 22:11 | 47.46227 | -122.30781 | 386 ft | 0 kts | 179° |
| 2026-05-06 22:11 | 47.46226 | -122.30781 | 386 ft | 1 kts | 179° |
| 2026-05-06 22:12 | 47.45990 | -122.30780 | 386 ft | 79 kts | 181° |
| 2026-05-06 22:12 | 47.45168 | -122.30788 | 393 ft | 156 kts | 181° |
| 2026-05-06 22:12 | 47.43924 | -122.30828 | 845 ft | 196 kts | 181° |
| 2026-05-06 22:12 | 47.42483 | -122.30824 | 1877 ft | 213 kts | 181° |
| 2026-05-06 22:13 | 47.40967 | -122.30763 | 2921 ft | 225 kts | 180° |
| 2026-05-06 22:13 | 47.39378 | -122.30636 | 3936 ft | 231 kts | 179° |
| 2026-05-06 22:13 | 47.37744 | -122.30485 | 4999 ft | 240 kts | 179° |
| 2026-05-06 22:13 | 47.36038 | -122.30312 | 5966 ft | 249 kts | 179° |
| 2026-05-06 22:14 | 47.34297 | -122.30116 | 6920 ft | 258 kts | 175° |
| 2026-05-06 22:14 | 47.32486 | -122.29483 | 7654 ft | 278 kts | 166° |
| 2026-05-06 22:14 | 47.30565 | -122.28620 | 8437 ft | 291 kts | 166° |
| 2026-05-06 22:14 | 47.28625 | -122.27760 | 9501 ft | 295 kts | 166° |
| 2026-05-06 22:15 | 47.26625 | -122.26878 | 10387 ft | 302 kts | 167° |
| 2026-05-06 22:15 | 47.24572 | -122.25978 | 11115 ft | 315 kts | 167° |
| 2026-05-06 22:15 | 47.22453 | -122.25051 | 11977 ft | 319 kts | 167° |
| 2026-05-06 22:15 | 47.20345 | -122.23932 | 12843 ft | 329 kts | 152° |
| 2026-05-06 22:16 | 47.18665 | -122.21605 | 13770 ft | 337 kts | 126° |
| 2026-05-06 22:16 | 47.17816 | -122.19675 | 14263 ft | 342 kts | 126° |
| 2026-05-06 22:16 | 47.15964 | -122.15832 | 15246 ft | 348 kts | 127° |
| 2026-05-06 22:16 | 47.14533 | -122.12911 | 15983 ft | 354 kts | 127° |
| 2026-05-06 22:17 | 47.13576 | -122.10969 | 16471 ft | 356 kts | 127° |
| 2026-05-06 22:17 | 47.11627 | -122.07018 | 17450 ft | 362 kts | 127° |
| 2026-05-06 22:17 | 47.10640 | -122.05022 | 17921 ft | 365 kts | 127° |
| 2026-05-06 22:17 | 47.09131 | -122.01971 | 18626 ft | 369 kts | 127° |
| 2026-05-06 22:18 | 47.07613 | -121.98907 | 19232 ft | 374 kts | 127° |
| 2026-05-06 22:18 | 47.06074 | -121.95806 | 19847 ft | 377 kts | 127° |
| 2026-05-06 22:18 | 47.04520 | -121.92675 | 20464 ft | 381 kts | 127° |
| 2026-05-06 22:18 | 47.02946 | -121.89510 | 21025 ft | 384 kts | 127° |
| 2026-05-06 22:19 | 47.01380 | -121.86362 | 21595 ft | 388 kts | 127° |
| 2026-05-06 22:19 | 46.99773 | -121.83139 | 22142 ft | 392 kts | 126° |
| 2026-05-06 22:19 | 46.98154 | -121.79891 | 22730 ft | 395 kts | 126° |
| 2026-05-06 22:19 | 46.96530 | -121.76640 | 23264 ft | 399 kts | 126° |
| 2026-05-06 22:20 | 46.94878 | -121.73336 | 23805 ft | 403 kts | 126° |
| 2026-05-06 22:20 | 46.93206 | -121.70001 | 24213 ft | 406 kts | 126° |
| 2026-05-06 22:20 | 46.91549 | -121.66691 | 24672 ft | 409 kts | 126° |
| 2026-05-06 22:20 | 46.89848 | -121.63302 | 25102 ft | 412 kts | 126° |
| 2026-05-06 22:21 | 46.88139 | -121.59900 | 25550 ft | 415 kts | 126° |
| 2026-05-06 22:21 | 46.86422 | -121.56489 | 25995 ft | 417 kts | 126° |
| 2026-05-06 22:21 | 46.84696 | -121.53063 | 26386 ft | 419 kts | 126° |
| 2026-05-06 22:21 | 46.82976 | -121.49651 | 26777 ft | 423 kts | 126° |
| 2026-05-06 22:22 | 46.81222 | -121.46178 | 27177 ft | 426 kts | 126° |
| 2026-05-06 22:22 | 46.79456 | -121.42683 | 27575 ft | 429 kts | 126° |
| 2026-05-06 22:22 | 46.77674 | -121.39165 | 27974 ft | 431 kts | 126° |
| 2026-05-06 22:22 | 46.75881 | -121.35626 | 28391 ft | 434 kts | 126° |
| 2026-05-06 22:23 | 46.74083 | -121.32083 | 28778 ft | 436 kts | 126° |
| 2026-05-06 22:23 | 46.72269 | -121.28514 | 29116 ft | 440 kts | 126° |
| 2026-05-06 22:23 | 46.70459 | -121.24956 | 29433 ft | 442 kts | 126° |
| 2026-05-06 22:23 | 46.68611 | -121.21328 | 29786 ft | 445 kts | 126° |
| 2026-05-06 22:24 | 46.66776 | -121.17730 | 30137 ft | 447 kts | 126° |
| 2026-05-06 22:24 | 46.64907 | -121.14070 | 30388 ft | 451 kts | 126° |
| 2026-05-06 22:24 | 46.63024 | -121.10389 | 30700 ft | 453 kts | 126° |
| 2026-05-06 22:24 | 46.61130 | -121.06688 | 31039 ft | 455 kts | 126° |
| 2026-05-06 22:25 | 46.59251 | -121.03025 | 31323 ft | 457 kts | 126° |
| 2026-05-06 22:25 | 46.57346 | -120.99315 | 31620 ft | 458 kts | 126° |
| 2026-05-06 22:25 | 46.55432 | -120.95591 | 31833 ft | 461 kts | 126° |
| 2026-05-06 22:25 | 46.53506 | -120.91851 | 32143 ft | 463 kts | 125° |
| 2026-05-06 22:26 | 46.51575 | -120.88105 | 32448 ft | 464 kts | 125° |
| 2026-05-06 22:26 | 46.49632 | -120.84342 | 32745 ft | 466 kts | 125° |
| 2026-05-06 22:26 | 46.47683 | -120.80569 | 33009 ft | 468 kts | 126° |
| 2026-05-06 22:26 | 46.45738 | -120.76811 | 33310 ft | 470 kts | 125° |
| 2026-05-06 22:27 | 46.43766 | -120.73007 | 33562 ft | 472 kts | 125° |
| 2026-05-06 22:27 | 46.41781 | -120.69183 | 33867 ft | 473 kts | 125° |
| 2026-05-06 22:27 | 46.39819 | -120.65408 | 34126 ft | 475 kts | 125° |
| 2026-05-06 22:27 | 46.37823 | -120.61571 | 34361 ft | 477 kts | 125° |
| 2026-05-06 22:28 | 46.35817 | -120.57722 | 34623 ft | 478 kts | 125° |
| 2026-05-06 22:28 | 46.33807 | -120.53872 | 34865 ft | 480 kts | 125° |
| 2026-05-06 22:28 | 46.31789 | -120.50009 | 35089 ft | 482 kts | 125° |
| 2026-05-06 22:28 | 46.29759 | -120.46129 | 35334 ft | 483 kts | 125° |
| 2026-05-06 22:29 | 46.27750 | -120.42296 | 35568 ft | 484 kts | 125° |
| 2026-05-06 22:29 | 46.25707 | -120.38402 | 35859 ft | 484 kts | 125° |
| 2026-05-06 22:29 | 46.23672 | -120.34526 | 36173 ft | 483 kts | 124° |
| 2026-05-06 22:29 | 46.21640 | -120.30663 | 36485 ft | 481 kts | 124° |
| 2026-05-06 22:30 | 46.19612 | -120.26813 | 36778 ft | 481 kts | 124° |
| 2026-05-06 22:30 | 46.17590 | -120.22981 | 37040 ft | 480 kts | 124° |
| 2026-05-06 22:30 | 46.15556 | -120.19130 | 37284 ft | 480 kts | 124° |
| 2026-05-06 22:30 | 46.13543 | -120.15323 | 37552 ft | 479 kts | 124° |
| 2026-05-06 22:31 | 46.11515 | -120.11498 | 37804 ft | 479 kts | 124° |
| 2026-05-06 22:31 | 46.09515 | -120.07727 | 38051 ft | 478 kts | 124° |
| 2026-05-06 22:31 | 46.07494 | -120.03923 | 38282 ft | 478 kts | 124° |
| 2026-05-06 22:31 | 46.05471 | -120.00118 | 38508 ft | 477 kts | 124° |
| 2026-05-06 22:32 | 46.03451 | -119.96326 | 38693 ft | 477 kts | 124° |
| 2026-05-06 22:32 | 46.01432 | -119.92541 | 38858 ft | 476 kts | 124° |
| 2026-05-06 22:32 | 45.97395 | -119.84987 | 38941 ft | 476 kts | 124° |
| 2026-05-06 22:33 | 45.93375 | -119.77486 | 38947 ft | 474 kts | 124° |
| 2026-05-06 22:33 | 45.89352 | -119.69998 | 38953 ft | 475 kts | 124° |
| 2026-05-06 22:34 | 45.85300 | -119.62477 | 38957 ft | 475 kts | 124° |
| 2026-05-06 22:34 | 45.81265 | -119.55007 | 38969 ft | 475 kts | 124° |
| 2026-05-06 22:35 | 45.77212 | -119.47525 | 38969 ft | 474 kts | 124° |
| 2026-05-06 22:35 | 45.73157 | -119.40058 | 38972 ft | 474 kts | 124° |
| 2026-05-06 22:36 | 45.69124 | -119.32651 | 38975 ft | 474 kts | 124° |
| 2026-05-06 22:36 | 45.65060 | -119.25206 | 38975 ft | 475 kts | 124° |
| 2026-05-06 22:37 | 45.60981 | -119.17756 | 38977 ft | 474 kts | 124° |
| 2026-05-06 22:37 | 45.56932 | -119.10376 | 39002 ft | 474 kts | 124° |
| 2026-05-06 22:38 | 45.52843 | -119.02946 | 39000 ft | 474 kts | 124° |
| 2026-05-06 22:38 | 45.48784 | -118.95589 | 39000 ft | 474 kts | 124° |
| 2026-05-06 22:39 | 45.44698 | -118.88202 | 39003 ft | 474 kts | 124° |
| 2026-05-06 22:39 | 45.40615 | -118.80839 | 39003 ft | 473 kts | 124° |
| 2026-05-06 22:40 | 45.36551 | -118.73532 | 39019 ft | 473 kts | 124° |
| 2026-05-06 22:40 | 45.32463 | -118.66192 | 38961 ft | 474 kts | 127° |
| 2026-05-06 22:41 | 45.26280 | -118.55144 | 39044 ft | 481 kts | 127° |
| 2026-05-06 22:42 | 45.22100 | -118.47696 | 39066 ft | 481 kts | 127° |
| 2026-05-06 22:42 | 45.17916 | -118.40259 | 39060 ft | 481 kts | 127° |
| 2026-05-06 22:43 | 45.13756 | -118.32884 | 39062 ft | 481 kts | 127° |
| 2026-05-06 22:43 | 45.09571 | -118.25482 | 39062 ft | 480 kts | 127° |
| 2026-05-06 22:44 | 45.05399 | -118.18125 | 39040 ft | 480 kts | 127° |
| 2026-05-06 22:44 | 45.01226 | -118.10786 | 39068 ft | 480 kts | 127° |
| 2026-05-06 22:45 | 44.97041 | -118.03442 | 39068 ft | 479 kts | 128° |
| 2026-05-06 22:45 | 44.92846 | -117.96102 | 39072 ft | 480 kts | 128° |
| 2026-05-06 22:46 | 44.88639 | -117.88758 | 39073 ft | 480 kts | 128° |
| 2026-05-06 22:46 | 44.84475 | -117.81426 | 39065 ft | 479 kts | 122° |
| 2026-05-06 22:46 | 44.82953 | -117.77306 | 39089 ft | 472 kts | 109° |
| 2026-05-06 22:47 | 44.81568 | -117.73083 | 39055 ft | 477 kts | 114° |
| 2026-05-06 22:47 | 44.78621 | -117.64711 | 39073 ft | 483 kts | 114° |
| 2026-05-06 22:48 | 44.75616 | -117.56145 | 39211 ft | 489 kts | 113° |
| 2026-05-06 22:48 | 44.72630 | -117.47659 | 39088 ft | 478 kts | 110° |
| 2026-05-06 22:49 | 44.69681 | -117.39297 | 39068 ft | 477 kts | 110° |
| 2026-05-06 22:49 | 44.66739 | -117.30985 | 39065 ft | 477 kts | 110° |
| 2026-05-06 22:50 | 44.63778 | -117.22643 | 39068 ft | 477 kts | 110° |
| 2026-05-06 22:50 | 44.60806 | -117.14292 | 39054 ft | 477 kts | 111° |
| 2026-05-06 22:51 | 44.57847 | -117.06010 | 39066 ft | 477 kts | 110° |
| 2026-05-06 22:51 | 44.54858 | -116.97665 | 39068 ft | 477 kts | 110° |
| 2026-05-06 22:52 | 44.51879 | -116.89376 | 39064 ft | 477 kts | 111° |
| 2026-05-06 22:52 | 44.48899 | -116.81107 | 39074 ft | 477 kts | 111° |
| 2026-05-06 22:53 | 44.45891 | -116.72786 | 39081 ft | 477 kts | 111° |
| 2026-05-06 22:53 | 44.42905 | -116.64552 | 39077 ft | 477 kts | 111° |
| 2026-05-06 22:54 | 44.39902 | -116.56296 | 39071 ft | 476 kts | 111° |
| 2026-05-06 22:54 | 44.36892 | -116.48044 | 39063 ft | 476 kts | 111° |
| 2026-05-06 22:55 | 44.33863 | -116.39767 | 39069 ft | 476 kts | 111° |
| 2026-05-06 22:55 | 43.96758 | -115.04749 | 39117 ft | 32000 kts | 111° |
| 2026-05-06 22:55 | 43.58059 | -113.64006 | 39254 ft | 477 kts | 108° |
| 2026-05-06 22:55 | 43.56506 | -113.59970 | 38997 ft | 484 kts | 117° |
| 2026-05-06 22:56 | 43.54378 | -113.56365 | 38994 ft | 494 kts | 131° |
| 2026-05-06 22:56 | 43.49310 | -113.49850 | 39010 ft | 498 kts | 130° |
| 2026-05-06 22:57 | 43.44402 | -113.43128 | 39006 ft | 497 kts | 130° |
| 2026-05-06 22:57 | 43.39511 | -113.36404 | 39013 ft | 497 kts | 130° |
| 2026-05-06 22:58 | 43.34612 | -113.29681 | 39020 ft | 497 kts | 130° |
| 2026-05-06 22:58 | 43.29727 | -113.22993 | 39023 ft | 496 kts | 130° |
| 2026-05-06 22:59 | 43.24837 | -113.16315 | 39030 ft | 495 kts | 131° |
| 2026-05-06 22:59 | 43.19985 | -113.09703 | 39036 ft | 494 kts | 131° |
| 2026-05-06 23:00 | 43.15267 | -113.02878 | 39023 ft | 483 kts | 118° |
| 2026-05-06 23:00 | 43.13786 | -112.98886 | 39057 ft | 468 kts | 104° |
| 2026-05-06 23:00 | 43.12579 | -112.94716 | 39047 ft | 474 kts | 109° |
| 2026-05-06 23:01 | 43.09778 | -112.86577 | 39069 ft | 474 kts | 110° |
| 2026-05-06 23:01 | 43.06918 | -112.78425 | 39090 ft | 474 kts | 110° |
| 2026-05-06 23:02 | 43.04064 | -112.70329 | 39098 ft | 474 kts | 110° |
| 2026-05-06 23:02 | 43.01670 | -112.63558 | 39113 ft | 475 kts | 110° |
| 2026-05-06 23:03 | 42.98789 | -112.55430 | 39113 ft | 476 kts | 110° |
| 2026-05-06 23:03 | 42.95887 | -112.47268 | 39113 ft | 477 kts | 110° |
| 2026-05-06 23:04 | 42.92988 | -112.39139 | 39116 ft | 479 kts | 110° |
| 2026-05-06 23:04 | 42.57766 | -111.09888 | 39212 ft | 32000 kts | 110° |
| 2026-05-06 23:04 | 42.45962 | -110.66464 | 39568 ft | 467 kts | 108° |
| 2026-05-06 23:04 | 42.44519 | -110.62528 | 39711 ft | 469 kts | 121° |
| 2026-05-06 23:05 | 42.42780 | -110.58802 | 39561 ft | 476 kts | 118° |
| 2026-05-06 23:05 | 42.41054 | -110.54924 | 39321 ft | 482 kts | 119° |
| 2026-05-06 23:05 | 42.39294 | -110.51012 | 39113 ft | 486 kts | 119° |
| 2026-05-06 23:06 | 42.35774 | -110.43238 | 39108 ft | 489 kts | 119° |
| 2026-05-06 23:06 | 42.32193 | -110.35355 | 39109 ft | 490 kts | 120° |
| 2026-05-06 23:07 | 42.28625 | -110.27520 | 39104 ft | 490 kts | 120° |
| 2026-05-06 23:07 | 42.25059 | -110.19710 | 39100 ft | 489 kts | 120° |
| 2026-05-06 23:08 | 42.21486 | -110.11901 | 39087 ft | 488 kts | 120° |
| 2026-05-06 23:08 | 42.17927 | -110.04149 | 39089 ft | 487 kts | 121° |
| 2026-05-06 23:09 | 42.14363 | -109.96402 | 39088 ft | 486 kts | 121° |
| 2026-05-06 23:09 | 42.10794 | -109.88665 | 39097 ft | 485 kts | 121° |
| 2026-05-06 23:10 | 42.07216 | -109.80931 | 39102 ft | 485 kts | 121° |
| 2026-05-06 23:10 | 42.03659 | -109.73260 | 39111 ft | 485 kts | 121° |
| 2026-05-06 23:11 | 42.00087 | -109.65577 | 39115 ft | 485 kts | 121° |
| 2026-05-06 23:11 | 41.96489 | -109.57858 | 39128 ft | 485 kts | 121° |
| 2026-05-06 23:12 | 41.92899 | -109.50173 | 39129 ft | 486 kts | 121° |
| 2026-05-06 23:12 | 41.89317 | -109.42527 | 39136 ft | 486 kts | 121° |
| 2026-05-06 23:13 | 41.85700 | -109.34826 | 39141 ft | 486 kts | 122° |
| 2026-05-06 23:13 | 41.82098 | -109.27178 | 39158 ft | 487 kts | 122° |
| 2026-05-06 23:14 | 41.78463 | -109.19478 | 39175 ft | 488 kts | 122° |
| 2026-05-06 23:14 | 41.74839 | -109.11820 | 39167 ft | 488 kts | 122° |
| 2026-05-06 23:15 | 41.71196 | -109.04142 | 39171 ft | 489 kts | 122° |
| 2026-05-06 23:15 | 41.67554 | -108.96486 | 39173 ft | 490 kts | 122° |
| 2026-05-06 23:16 | 41.63879 | -108.88779 | 39184 ft | 490 kts | 122° |
| 2026-05-06 23:16 | 41.60215 | -108.81116 | 39169 ft | 491 kts | 122° |
| 2026-05-06 23:17 | 41.56732 | -108.73263 | 39153 ft | 489 kts | 109° |
| 2026-05-06 23:17 | 41.21093 | -107.33023 | 39110 ft | 486 kts | 103° |
| 2026-05-06 23:18 | 41.18390 | -107.24832 | 39172 ft | 479 kts | 108° |
| 2026-05-06 23:18 | 41.15701 | -107.16802 | 39171 ft | 477 kts | 108° |
| 2026-05-06 23:19 | 41.12999 | -107.08741 | 39164 ft | 477 kts | 108° |
| 2026-05-06 23:19 | 41.10295 | -107.00696 | 39162 ft | 478 kts | 109° |
| 2026-05-06 23:20 | 41.07585 | -106.92657 | 39159 ft | 478 kts | 109° |
| 2026-05-06 23:20 | 41.04861 | -106.84598 | 39164 ft | 479 kts | 109° |
| 2026-05-06 23:21 | 41.02135 | -106.76557 | 39162 ft | 479 kts | 109° |
| 2026-05-06 23:21 | 40.99402 | -106.68518 | 39160 ft | 479 kts | 109° |
| 2026-05-06 23:22 | 40.96681 | -106.60539 | 39165 ft | 479 kts | 109° |
| 2026-05-06 23:22 | 40.93933 | -106.52505 | 39158 ft | 479 kts | 110° |
| 2026-05-06 23:23 | 40.91180 | -106.44477 | 39082 ft | 479 kts | 110° |
| 2026-05-06 23:23 | 40.89798 | -106.40448 | 38148 ft | 482 kts | 109° |
| 2026-05-06 23:23 | 40.88409 | -106.36410 | 37010 ft | 485 kts | 109° |
| 2026-05-06 23:23 | 40.87022 | -106.32386 | 35954 ft | 486 kts | 108° |
| 2026-05-06 23:24 | 40.85621 | -106.28326 | 34940 ft | 486 kts | 107° |
| 2026-05-06 23:24 | 40.84201 | -106.24268 | 33934 ft | 483 kts | 107° |
| 2026-05-06 23:24 | 40.82783 | -106.20269 | 32876 ft | 479 kts | 107° |
| 2026-05-06 23:24 | 40.81383 | -106.16313 | 32124 ft | 469 kts | 107° |
| 2026-05-06 23:25 | 40.80023 | -106.12478 | 31702 ft | 456 kts | 106° |
| 2026-05-06 23:25 | 40.78680 | -106.08688 | 31277 ft | 455 kts | 106° |
| 2026-05-06 23:25 | 40.77340 | -106.04915 | 30727 ft | 452 kts | 106° |
| 2026-05-06 23:25 | 40.76023 | -106.01210 | 30202 ft | 449 kts | 106° |
| 2026-05-06 23:26 | 40.74698 | -105.97491 | 29598 ft | 445 kts | 106° |
| 2026-05-06 23:26 | 40.73389 | -105.93819 | 29096 ft | 441 kts | 107° |
| 2026-05-06 23:26 | 40.72079 | -105.90159 | 28550 ft | 438 kts | 107° |
| 2026-05-06 23:26 | 40.70781 | -105.86537 | 28033 ft | 434 kts | 107° |
| 2026-05-06 23:27 | 40.69509 | -105.82994 | 27586 ft | 430 kts | 107° |
| 2026-05-06 23:27 | 40.68232 | -105.79438 | 27125 ft | 426 kts | 107° |
| 2026-05-06 23:27 | 40.66969 | -105.75929 | 26674 ft | 423 kts | 107° |
| 2026-05-06 23:27 | 40.65710 | -105.72435 | 26187 ft | 420 kts | 107° |
| 2026-05-06 23:28 | 40.64462 | -105.68973 | 25738 ft | 417 kts | 107° |
| 2026-05-06 23:28 | 40.63209 | -105.65505 | 25218 ft | 418 kts | 108° |
| 2026-05-06 23:28 | 40.61975 | -105.62095 | 24790 ft | 415 kts | 108° |
| 2026-05-06 23:28 | 40.60745 | -105.58696 | 24333 ft | 406 kts | 108° |
| 2026-05-06 23:29 | 40.59539 | -105.55369 | 23919 ft | 401 kts | 108° |
| 2026-05-06 23:29 | 40.58353 | -105.52100 | 23420 ft | 398 kts | 108° |
| 2026-05-06 23:29 | 40.57158 | -105.48813 | 22951 ft | 395 kts | 108° |
| 2026-05-06 23:29 | 40.55974 | -105.45556 | 22510 ft | 393 kts | 108° |
| 2026-05-06 23:30 | 40.54794 | -105.42315 | 22104 ft | 389 kts | 108° |
| 2026-05-06 23:30 | 40.53642 | -105.39153 | 21801 ft | 388 kts | 109° |
| 2026-05-06 23:30 | 40.52407 | -105.36017 | 21600 ft | 382 kts | 118° |
| 2026-05-06 23:30 | 40.50623 | -105.33464 | 21582 ft | 381 kts | 137° |
| 2026-05-06 23:31 | 40.48352 | -105.31669 | 21353 ft | 379 kts | 150° |
| 2026-05-06 23:31 | 40.46033 | -105.30100 | 20633 ft | 379 kts | 148° |
| 2026-05-06 23:31 | 40.43730 | -105.28455 | 20089 ft | 373 kts | 148° |
| 2026-05-06 23:31 | 40.41464 | -105.26811 | 19546 ft | 369 kts | 148° |
| 2026-05-06 23:32 | 40.39227 | -105.25172 | 19132 ft | 369 kts | 148° |
| 2026-05-06 23:32 | 40.36980 | -105.23516 | 18703 ft | 370 kts | 148° |
| 2026-05-06 23:32 | 40.34758 | -105.21872 | 18272 ft | 369 kts | 149° |
| 2026-05-06 23:32 | 40.32541 | -105.20235 | 17826 ft | 360 kts | 149° |
| 2026-05-06 23:33 | 40.30370 | -105.18635 | 17365 ft | 354 kts | 149° |
| 2026-05-06 23:33 | 40.28234 | -105.17060 | 16904 ft | 349 kts | 150° |
| 2026-05-06 23:33 | 40.26131 | -105.15510 | 16531 ft | 347 kts | 150° |
| 2026-05-06 23:33 | 40.24033 | -105.13963 | 16139 ft | 343 kts | 151° |
| 2026-05-06 23:34 | 40.21975 | -105.12447 | 15758 ft | 340 kts | 151° |
| 2026-05-06 23:34 | 40.19911 | -105.10928 | 15377 ft | 338 kts | 152° |
| 2026-05-06 23:34 | 40.17889 | -105.09441 | 15013 ft | 335 kts | 152° |
| 2026-05-06 23:34 | 40.15858 | -105.07948 | 14637 ft | 332 kts | 152° |
| 2026-05-06 23:35 | 40.13843 | -105.06468 | 14276 ft | 330 kts | 153° |
| 2026-05-06 23:35 | 40.11849 | -105.05005 | 13917 ft | 327 kts | 153° |
| 2026-05-06 23:35 | 40.09897 | -105.03571 | 13486 ft | 324 kts | 153° |
| 2026-05-06 23:35 | 40.07935 | -105.02133 | 13084 ft | 322 kts | 153° |
| 2026-05-06 23:36 | 40.05982 | -105.00703 | 12778 ft | 320 kts | 153° |
| 2026-05-06 23:36 | 40.04698 | -104.99763 | 12593 ft | 319 kts | 153° |
| 2026-05-06 23:36 | 40.02119 | -104.97876 | 12375 ft | 316 kts | 153° |
| 2026-05-06 23:36 | 40.00218 | -104.96485 | 12221 ft | 316 kts | 153° |
| 2026-05-06 23:37 | 39.98298 | -104.95083 | 11979 ft | 314 kts | 152° |
| 2026-05-06 23:37 | 39.96391 | -104.93690 | 11712 ft | 313 kts | 152° |
| 2026-05-06 23:37 | 39.94492 | -104.92304 | 11438 ft | 311 kts | 152° |
| 2026-05-06 23:37 | 39.92603 | -104.90927 | 11182 ft | 309 kts | 152° |
| 2026-05-06 23:38 | 39.90756 | -104.89581 | 11012 ft | 307 kts | 152° |
| 2026-05-06 23:38 | 39.88892 | -104.88222 | 10999 ft | 302 kts | 152° |
| 2026-05-06 23:38 | 39.87118 | -104.86933 | 10992 ft | 281 kts | 152° |
| 2026-05-06 23:38 | 39.85461 | -104.85728 | 10810 ft | 266 kts | 152° |
| 2026-05-06 23:39 | 39.83885 | -104.84581 | 10504 ft | 260 kts | 152° |
| 2026-05-06 23:39 | 39.82322 | -104.83445 | 10217 ft | 255 kts | 152° |
| 2026-05-06 23:39 | 39.80780 | -104.82325 | 9882 ft | 251 kts | 152° |
| 2026-05-06 23:39 | 39.79255 | -104.81216 | 9547 ft | 249 kts | 152° |
| 2026-05-06 23:40 | 39.77675 | -104.80384 | 9246 ft | 244 kts | 171° |
| 2026-05-06 23:40 | 39.76007 | -104.80145 | 9130 ft | 243 kts | 177° |
| 2026-05-06 23:40 | 39.74320 | -104.79982 | 9015 ft | 242 kts | 177° |
| 2026-05-06 23:40 | 39.72648 | -104.79824 | 8966 ft | 242 kts | 178° |
| 2026-05-06 23:41 | 39.70969 | -104.79631 | 8973 ft | 242 kts | 172° |
| 2026-05-06 23:41 | 39.69443 | -104.78715 | 8956 ft | 244 kts | 140° |
| 2026-05-06 23:41 | 39.68480 | -104.76949 | 8914 ft | 246 kts | 110° |
| 2026-05-06 23:41 | 39.68230 | -104.74762 | 8706 ft | 245 kts | 89° |
| 2026-05-06 23:42 | 39.68305 | -104.72559 | 8449 ft | 244 kts | 80° |
| 2026-05-06 23:42 | 39.68964 | -104.70600 | 8091 ft | 233 kts | 49° |
| 2026-05-06 23:42 | 39.70194 | -104.69332 | 7710 ft | 219 kts | 29° |
| 2026-05-06 23:42 | 39.71543 | -104.68538 | 7315 ft | 207 kts | 9° |
| 2026-05-06 23:43 | 39.72930 | -104.68586 | 7097 ft | 200 kts | 351° |
| 2026-05-06 23:43 | 39.74325 | -104.68765 | 7041 ft | 201 kts | 355° |
| 2026-05-06 23:43 | 39.75629 | -104.68820 | 7007 ft | 172 kts | 358° |
| 2026-05-06 23:43 | 39.76777 | -104.68824 | 7031 ft | 163 kts | 359° |
| 2026-05-06 23:44 | 39.77900 | -104.68814 | 7024 ft | 161 kts | 359° |
| 2026-05-06 23:44 | 39.79034 | -104.68803 | 6917 ft | 164 kts | 359° |
| 2026-05-06 23:44 | 39.80150 | -104.68792 | 6742 ft | 164 kts | 359° |
| 2026-05-06 23:44 | 39.81295 | -104.68777 | 6526 ft | 164 kts | 360° |
| 2026-05-06 23:45 | 39.82459 | -104.68764 | 6243 ft | 166 kts | 360° |
| 2026-05-06 23:45 | 39.83620 | -104.68751 | 5964 ft | 166 kts | 360° |
| 2026-05-06 23:45 | 39.84781 | -104.68738 | 5735 ft | 170 kts | 360° |
| 2026-05-06 23:45 | 39.85934 | -104.68728 | 5517 ft | 164 kts | 0° |
| 2026-05-06 23:46 | 39.87011 | -104.68705 | 5366 ft | 143 kts | 360° |
| 2026-05-06 23:46 | 39.87781 | -104.68701 | 5369 ft | 71 kts | 0° |